Time;durP1;ratioP1;P1;durP2;ratioP2;P2;SDS_P1;SDS_P2;PMS_P1;PMS_P2;Temp;Humidity;BMP_temperature;BMP_pressure;BME280_temperature;BME280_humidity;BME280_pressure;Samples;Min_cycle;Max_cycle;Signal;HPM_P1;HPM_P2
2024/02/08 00:00:07;;;;;;;;;;;;;;;15.78;47.26;100183.84;5025458;28;1168;-48
2024/02/08 00:02:33;;;;;;;;;;;;;;;15.85;47.49;100185.22;5021626;28;1922;-47
2024/02/08 00:04:59;;;;;;;;;;;;;;;17.33;43.79;100181.47;5016898;28;2267;-49
2024/02/08 00:07:24;;;;;;;;;;;;;;;17.00;44.27;100197.78;5030377;28;1044;-48
2024/02/08 00:09:51;;;;;;;;;;;;;;;16.33;45.90;100189.31;5017287;28;1132;-49
2024/02/08 00:12:16;;;;;;;;;;;;;;;15.97;47.05;100189.56;5016643;28;1175;-48
2024/02/08 00:14:42;;;;;;;;;;;;;;;15.84;47.13;100191.00;5017077;28;898;-50
2024/02/08 00:17:08;;;;;;;;;;;;;;;15.66;47.98;100187.75;5029861;28;1008;-50
2024/02/08 00:19:33;;;;;;;;;;;;;;;17.21;44.13;100192.09;5017064;28;1114;-48
2024/02/08 00:21:59;;;;;;;;;;;;;;;16.86;44.66;100197.63;5022348;28;1905;-48
2024/02/08 00:24:24;;;;;;;;;;;;;;;16.25;46.37;100198.97;5017080;28;1055;-48
2024/02/08 00:26:50;;;;;;;;;;;;;;;15.96;46.81;100196.13;5016641;28;896;-50
2024/02/08 00:29:16;;;;;;;;;;;;;;;15.73;47.42;100193.75;5017019;28;1061;-45
2024/02/08 00:31:42;;;;;;;;;;;;;;;15.63;47.92;100196.56;5017845;28;1066;-51
2024/02/08 00:34:07;;;;;;;;;;;;;;;16.70;45.45;100205.16;5028477;28;2086;-51
2024/02/08 00:36:33;;;;;;;;;;;;;;;17.64;42.92;100199.53;5017894;28;1008;-49
2024/02/08 00:38:59;;;;;;;;;;;;;;;16.47;45.81;100201.25;5028180;28;927;-50
2024/02/08 00:41:24;;;;;;;;;;;;;;;16.17;46.49;100203.13;5018065;28;1081;-49
2024/02/08 00:43:50;;;;;;;;;;;;;;;15.90;47.23;100203.56;5028604;28;1975;-51
2024/02/08 00:46:16;;;;;;;;;;;;;;;15.77;47.38;100198.66;5018536;28;1124;-47
2024/02/08 00:48:43;;;;;;;;;;;;;;;15.53;47.83;100193.88;5036122;28;1111;-48
2024/02/08 00:51:09;;;;;;;;;;;;;;;16.61;45.55;100198.69;5021201;28;983;-47
2024/02/08 00:53:34;;;;;;;;;;;;;;;17.65;42.82;100196.47;5016375;28;1058;-46
2024/02/08 00:56:00;;;;;;;;;;;;;;;16.71;45.03;100195.84;5017850;28;1156;-51
2024/02/08 00:58:25;;;;;;;;;;;;;;;16.23;46.15;100201.19;5028718;28;999;-47
2024/02/08 01:00:53;;;;;;;;;;;;;;;15.90;47.19;100196.16;5015981;28;1001;-47
2024/02/08 01:03:19;;;;;;;;;;;;;;;15.82;47.42;100199.50;5016603;28;1985;-50
2024/02/08 01:05:51;;;;;;;;;;;;;;;15.91;47.34;100194.25;5019441;28;2260;-46
2024/02/08 01:08:17;;;;;;;;;;;;;;;17.47;43.37;100200.84;5019006;28;1126;-52
2024/02/08 01:10:43;;;;;;;;;;;;;;;17.01;44.27;100199.44;5020819;28;1159;-50
2024/02/08 01:13:08;;;;;;;;;;;;;;;16.39;45.99;100199.13;5016203;28;1064;-48
2024/02/08 01:15:35;;;;;;;;;;;;;;;16.04;46.55;100201.81;5015944;28;994;-49
2024/02/08 01:18:03;;;;;;;;;;;;;;;15.91;46.94;100205.22;5024299;28;1063;-47
2024/02/08 01:20:29;;;;;;;;;;;;;;;15.74;47.55;100209.09;5020625;28;1075;-48
2024/02/08 01:22:55;;;;;;;;;;;;;;;16.34;46.33;100213.72;5016229;28;1926;-47
2024/02/08 01:25:20;;;;;;;;;;;;;;;17.61;43.38;100206.44;5015873;28;1274;-47
2024/02/08 01:27:46;;;;;;;;;;;;;;;16.71;45.03;100217.00;5027594;28;988;-50
2024/02/08 01:30:13;;;;;;;;;;;;;;;16.29;46.30;100215.69;5015961;28;1510;-49
2024/02/08 01:32:39;;;;;;;;;;;;;;;15.97;46.82;100212.28;5016219;28;1032;-48
2024/02/08 01:35:06;;;;;;;;;;;;;;;15.84;47.29;100207.44;5015488;28;2023;-48
2024/02/08 01:37:38;;;;;;;;;;;;;;;16.39;46.18;100205.44;5015836;28;1104;-47
2024/02/08 01:40:07;;;;;;;;;;;;;;;17.70;42.97;100207.44;5015859;28;1036;-46
2024/02/08 01:42:34;;;;;;;;;;;;;;;16.77;44.94;100200.19;5024521;28;2057;-47
2024/02/08 01:45:20;;;;;;;;;;;;;;;16.28;46.33;100208.53;5019010;28;1071;-50
2024/02/08 01:47:47;;;;;;;;;;;;;;;15.95;46.91;100209.03;5005193;28;1313;-51
2024/02/08 01:50:13;;;;;;;;;;;;;;;15.79;47.37;100210.19;5021667;28;1269;-48
2024/02/08 01:52:42;;;;;;;;;;;;;;;15.86;47.50;100213.47;5022569;28;1030;-49
2024/02/08 01:55:08;;;;;;;;;;;;;;;17.40;43.81;100212.19;5034336;28;1447;-49
2024/02/08 01:57:33;;;;;;;;;;;;;;;16.98;44.48;100210.19;5021105;28;1220;-48
2024/02/08 02:00:00;;;;;;;;;;;;;;;16.33;46.01;100212.06;5018706;28;1108;-47
2024/02/08 02:02:27;;;;;;;;;;;;;;;16.13;46.58;100201.22;5019442;28;1902;-49
2024/02/08 02:04:53;;;;;;;;;;;;;;;15.83;47.25;100195.66;5017944;28;2394;-46
2024/02/08 02:07:19;;;;;;;;;;;;;;;15.71;47.76;100200.59;5032991;28;1036;-50
2024/02/08 02:09:44;;;;;;;;;;;;;;;16.58;45.63;100205.56;5019440;28;1159;-52
2024/02/08 02:12:12;;;;;;;;;;;;;;;17.69;43.05;100207.72;5018678;28;1028;-49
2024/02/08 02:14:38;;;;;;;;;;;;;;;16.64;45.29;100203.59;5019360;28;884;-50
2024/02/08 02:17:15;;;;;;;;;;;;;;;16.24;46.54;100211.88;5031795;28;1083;-47
2024/02/08 02:19:41;;;;;;;;;;;;;;;15.93;47.18;100210.41;5019361;28;1063;-48
2024/02/08 02:22:09;;;;;;;;;;;;;;;15.72;47.46;100208.56;5023761;28;1918;-47
2024/02/08 02:24:40;;;;;;;;;;;;;;;15.89;47.25;100208.25;5027984;28;1016;-47
2024/02/08 02:27:05;;;;;;;;;;;;;;;17.44;43.85;100202.22;5021941;28;1035;-48
2024/02/08 02:29:32;;;;;;;;;;;;;;;16.88;44.74;100216.56;5018761;28;1175;-48
2024/02/08 02:31:59;;;;;;;;;;;;;;;16.29;46.29;100208.25;5022227;28;1203;-49
2024/02/08 02:34:26;;;;;;;;;;;;;;;15.90;47.14;100209.06;5035226;28;2010;-48
2024/02/08 02:36:56;;;;;;;;;;;;;;;15.80;47.29;100209.94;5023366;28;1028;-48
2024/02/08 02:39:26;;;;;;;;;;;;;;;16.15;46.70;100213.56;5026493;28;912;-49
2024/02/08 02:41:54;;;;;;;;;;;;;;;17.54;43.31;100206.78;5018506;28;1914;-48
2024/02/08 02:44:20;;;;;;;;;;;;;;;16.72;45.13;100213.16;5018489;28;1071;-46
2024/02/08 02:46:46;;;;;;;;;;;;;;;16.23;46.19;100218.44;5023625;28;1056;-50
2024/02/08 02:49:11;;;;;;;;;;;;;;;15.95;47.08;100220.00;5025969;28;1027;-51
2024/02/08 02:51:37;;;;;;;;;;;;;;;15.73;47.54;100228.56;5018451;28;1148;-46
2024/02/08 02:54:02;;;;;;;;;;;;;;;16.03;46.99;100235.84;5018895;28;1180;-46
2024/02/08 02:56:28;;;;;;;;;;;;;;;17.46;43.54;100232.19;5036078;28;1000;-49
2024/02/08 02:58:54;;;;;;;;;;;;;;;16.97;44.59;100220.34;5038080;28;1071;-47
2024/02/08 03:01:20;;;;;;;;;;;;;;;16.32;46.23;100228.81;5033143;28;1068;-48
2024/02/08 03:03:47;;;;;;;;;;;;;;;16.04;46.94;100237.47;5018021;28;2089;-51
2024/02/08 03:06:15;;;;;;;;;;;;;;;15.83;47.21;100241.44;5018708;28;1103;-51
2024/02/08 03:08:42;;;;;;;;;;;;;;;15.85;47.30;100245.56;5030222;28;1523;-48
2024/02/08 03:11:11;;;;;;;;;;;;;;;17.37;43.89;100245.75;5035090;28;1080;-50
2024/02/08 03:13:40;;;;;;;;;;;;;;;17.01;44.52;100250.78;5025485;28;1082;-49
2024/02/08 03:16:06;;;;;;;;;;;;;;;16.38;45.99;100244.13;5031452;28;995;-51
2024/02/08 03:18:38;;;;;;;;;;;;;;;15.99;46.92;100253.97;5018305;28;1092;-45
2024/02/08 03:21:04;;;;;;;;;;;;;;;15.85;47.46;100248.28;5019485;28;1108;-46
2024/02/08 03:23:30;;;;;;;;;;;;;;;15.72;47.79;100246.13;5023158;28;1902;-49
2024/02/08 03:25:56;;;;;;;;;;;;;;;17.23;44.18;100245.63;5025217;28;1004;-47
2024/02/08 03:28:23;;;;;;;;;;;;;;;17.29;43.80;100249.13;5023086;28;833;-50
2024/02/08 03:30:52;;;;;;;;;;;;;;;16.49;45.80;100261.34;5017806;28;1113;-50
2024/02/08 03:33:18;;;;;;;;;;;;;;;16.17;46.80;100248.94;5030533;28;1057;-48
2024/02/08 03:35:48;;;;;;;;;;;;;;;15.87;47.20;100246.06;5026479;28;2456;-51
2024/02/08 03:38:14;;;;;;;;;;;;;;;15.76;47.64;100246.38;5020390;28;1095;-46
2024/02/08 03:40:40;;;;;;;;;;;;;;;16.38;46.26;100255.94;5028204;28;890;-48
2024/02/08 03:43:06;;;;;;;;;;;;;;;17.66;43.28;100246.81;5017636;28;1972;-48
2024/02/08 03:45:31;;;;;;;;;;;;;;;16.74;45.18;100252.91;5026455;28;1123;-47
2024/02/08 03:47:59;;;;;;;;;;;;;;;16.24;46.68;100249.44;5021540;28;988;-51
2024/02/08 03:50:36;;;;;;;;;;;;;;;15.96;47.16;100251.78;5017457;28;1539;-47
2024/02/08 03:53:12;;;;;;;;;;;;;;;15.73;47.73;100248.56;5017224;28;1086;-47
2024/02/08 03:55:38;;;;;;;;;;;;;;;15.61;47.78;100241.78;5017591;28;973;-50
2024/02/08 03:58:06;;;;;;;;;;;;;;;16.25;46.53;100248.34;5017423;28;1152;-47
2024/02/08 04:00:33;;;;;;;;;;;;;;;17.57;43.61;100254.88;5017063;28;1159;-51
2024/02/08 04:03:01;;;;;;;;;;;;;;;16.67;45.30;100246.94;5021423;28;1910;-51
2024/02/08 04:54:32;;;;;;;;;;;;;;;15.82;47.61;100261.72;5022873;28;1100;-48
2024/02/08 04:56:59;;;;;;;;;;;;;;;15.66;47.70;100269.97;5027510;28;1123;-50
2024/02/08 04:59:26;;;;;;;;;;;;;;;16.84;45.28;100270.41;5032068;28;1183;-51
2024/02/08 05:01:53;;;;;;;;;;;;;;;17.64;43.23;100266.31;5026773;28;1898;-49
2024/02/08 05:04:20;;;;;;;;;;;;;;;16.57;45.49;100267.03;5023585;28;2584;-50
2024/02/08 05:06:46;;;;;;;;;;;;;;;16.20;46.64;100262.06;5026862;28;1147;-47
2024/02/08 05:09:15;;;;;;;;;;;;;;;15.95;47.16;100258.38;5019489;28;1024;-48
2024/02/08 05:11:43;;;;;;;;;;;;;;;15.71;47.65;100261.75;5035938;28;1032;-48
2024/02/08 05:14:09;;;;;;;;;;;;;;;15.95;47.38;100255.66;5032613;28;1066;-47
2024/02/08 05:16:37;;;;;;;;;;;;;;;17.42;43.88;100264.13;5027720;28;888;-52
2024/02/08 05:19:03;;;;;;;;;;;;;;;17.74;42.96;100254.38;5022506;28;1167;-49
2024/02/08 05:21:30;;;;;;;;;;;;;;;16.42;45.92;100257.00;5030875;28;1052;-51
2024/02/08 05:23:58;;;;;;;;;;;;;;;17.95;42.71;100255.00;5032805;28;1914;-50
2024/02/08 05:26:25;;;;;;;;;;;;;;;17.15;44.38;100259.16;5025812;28;1072;-52
2024/02/08 05:28:52;;;;;;;;;;;;;;;16.54;45.91;100266.81;5025064;28;1039;-51
2024/02/08 05:31:18;;;;;;;;;;;;;;;18.19;41.93;100265.09;5016520;28;1145;-50
2024/02/08 05:33:44;;;;;;;;;;;;;;;16.85;44.96;100261.06;5019761;28;2478;-50
2024/02/08 05:36:10;;;;;;;;;;;;;;;16.35;45.68;100264.72;5030863;28;1094;-52
2024/02/08 05:38:41;;;;;;;;;;;;;;;17.78;43.47;100272.78;5026543;28;1174;-50
2024/02/08 05:41:09;;;;;;;;;;;;;;;16.93;44.89;100257.75;5036833;28;876;-49
2024/02/08 05:43:47;;;;;;;;;;;;;;;16.46;45.54;100260.00;5026085;28;1905;-48
2024/02/08 05:46:21;;;;;;;;;;;;;;;17.66;43.79;100266.88;5039509;28;1105;-48
2024/02/08 05:48:51;;;;;;;;;;;;;;;16.99;44.82;100266.75;5039936;28;1019;-49
2024/02/08 05:51:20;;;;;;;;;;;;;;;17.03;45.01;100273.31;5026873;28;1605;-45
2024/02/08 05:53:49;;;;;;;;;;;;;;;17.89;42.86;100265.22;5018990;28;869;-45
2024/02/08 05:56:21;;;;;;;;;;;;;;;16.89;45.02;100278.66;5019856;28;1080;-45
2024/02/08 05:58:47;;;;;;;;;;;;;;;16.69;45.79;100274.09;5019678;28;1065;-48
2024/02/08 06:01:20;;;;;;;;;;;;;;;17.63;43.35;100281.22;5032839;28;1079;-43
2024/02/08 06:03:46;;;;;;;;;;;;;;;16.76;45.16;100280.91;5019758;28;2376;-51
2024/02/08 06:08:57;;;;;;;;;;;;;;;17.86;43.47;100285.03;5026104;28;1099;-48
2024/02/08 06:11:27;;;;;;;;;;;;;;;16.81;45.39;100290.22;5038950;28;1003;-49
2024/02/08 06:13:59;;;;;;;;;;;;;;;16.51;45.48;100283.81;5037732;28;1015;-51
2024/02/08 06:16:33;;;;;;;;;;;;;;;17.03;45.30;100285.09;5020594;28;1025;-51
2024/02/08 06:19:02;;;;;;;;;;;;;;;17.35;44.48;100285.63;5035314;28;1175;-51
2024/02/08 06:21:41;;;;;;;;;;;;;;;16.61;45.75;100286.53;5034018;28;1146;-51
2024/02/08 06:27:01;;;;;;;;;;;;;;;17.16;44.53;100291.84;5019431;28;1034;-50
2024/02/08 06:29:38;;;;;;;;;;;;;;;16.57;45.63;100299.16;5019032;28;833;-50
2024/02/08 06:32:23;;;;;;;;;;;;;;;17.38;44.65;100285.88;5035619;28;1079;-53
2024/02/08 06:35:06;;;;;;;;;;;;;;;16.87;45.49;100291.81;5038539;28;2622;-48
2024/02/08 06:37:42;;;;;;;;;;;;;;;16.46;45.53;100301.16;5024753;28;1120;-52
2024/02/08 06:40:17;;;;;;;;;;;;;;;16.31;45.30;100304.81;5032249;28;1048;-49
2024/02/08 06:43:25;;;;;;;;;;;;;;;18.00;43.21;100304.44;5035715;28;1901;-52
2024/02/08 06:48:31;;;;;;;;;;;;;;;16.53;45.80;100298.09;5025463;28;1024;-53
2024/02/08 07:37:29;;;;;;;;;;;;;;;18.12;42.98;100293.81;5018254;28;1076;-54
2024/02/08 07:40:00;;;;;;;;;;;;;;;17.04;45.18;100302.41;5031099;28;1032;-52
2024/02/08 07:42:29;;;;;;;;;;;;;;;16.69;45.23;100296.91;5023535;28;1914;-53
2024/02/08 07:44:58;;;;;;;;;;;;;;;17.87;43.92;100296.88;5037116;28;1127;-56
2024/02/08 07:47:27;;;;;;;;;;;;;;;17.31;44.90;100296.38;5037073;28;1072;-54
2024/02/08 07:50:04;;;;;;;;;;;;;;;16.83;45.41;100296.22;5025243;28;1083;-56
2024/02/08 07:52:30;;;;;;;;;;;;;;;16.77;45.45;100299.03;5036262;28;1111;-54
2024/02/08 07:57:59;;;;;;;;;;;;;;;17.83;43.94;100293.06;5008275;28;1323;-55
2024/02/08 08:03:08;;;;;;;;;;;;;;;17.59;44.17;100280.16;5021646;28;1971;-55
2024/02/08 08:05:55;;;;;;;;;;;;;;;17.15;44.83;100289.38;5023649;28;2828;-54
2024/02/08 08:08:31;;;;;;;;;;;;;;;17.54;44.25;100293.94;5025696;28;993;-53
2024/02/08 08:11:02;;;;;;;;;;;;;;;17.94;43.49;100283.59;5033636;28;1074;-55
2024/02/08 08:18:59;;;;;;;;;;;;;;;17.98;43.45;100278.31;5016764;28;893;-55
2024/02/08 08:21:27;;;;;;;;;;;;;;;17.08;45.28;100282.31;5021133;28;1103;-53
2024/02/08 08:24:02;;;;;;;;;;;;;;;16.74;45.43;100283.09;5036334;28;1906;-52
2024/02/08 08:26:39;;;;;;;;;;;;;;;18.34;42.74;100278.66;5019143;28;1115;-54
2024/02/08 08:29:13;;;;;;;;;;;;;;;17.51;44.17;100280.78;5020526;28;1497;-55
2024/02/08 08:31:51;;;;;;;;;;;;;;;16.99;45.37;100288.72;5036420;28;1055;-52
2024/02/08 08:36:58;;;;;;;;;;;;;;;17.52;44.16;100285.19;5026410;28;1044;-53
2024/02/08 08:42:16;;;;;;;;;;;;;;;17.01;45.39;100298.31;5035321;28;1910;-55
2024/02/08 08:44:59;;;;;;;;;;;;;;;17.76;44.06;100304.44;5016555;28;1305;-55
2024/02/08 08:47:27;;;;;;;;;;;;;;;17.03;45.16;100295.28;5030949;28;1031;-55
2024/02/08 08:49:56;;;;;;;;;;;;;;;16.73;45.22;100289.72;5024501;28;1305;-54
2024/02/08 08:52:24;;;;;;;;;;;;;;;17.36;44.89;100287.25;5022545;28;1035;-55
2024/02/08 08:55:11;;;;;;;;;;;;;;;18.04;43.30;100285.41;5018650;28;889;-52
2024/02/08 08:57:37;;;;;;;;;;;;;;;17.06;45.28;100284.53;5025265;28;1079;-54
2024/02/08 09:00:09;;;;;;;;;;;;;;;16.78;45.29;100280.63;5034561;28;1305;-55
2024/02/08 09:02:40;;;;;;;;;;;;;;;17.76;44.06;100283.22;5017722;28;1984;-52
2024/02/08 09:05:17;;;;;;;;;;;;;;;17.28;44.90;100280.47;5025703;28;2776;-50
2024/02/08 09:07:45;;;;;;;;;;;;;;;16.83;45.43;100277.84;5035763;28;1127;-53
2024/02/08 09:10:14;;;;;;;;;;;;;;;17.70;44.44;100287.16;5027818;28;1035;-51
2024/02/08 09:12:39;;;;;;;;;;;;;;;17.77;44.00;100278.56;5025378;28;1393;-54
2024/02/08 09:15:19;;;;;;;;;;;;;;;17.04;45.12;100281.25;5033945;28;1399;-49
2024/02/08 09:17:51;;;;;;;;;;;;;;;16.79;45.19;100281.44;5019605;28;996;-50
2024/02/08 09:20:20;;;;;;;;;;;;;;;16.63;45.14;100275.25;5023316;28;1230;-52
2024/02/08 09:22:47;;;;;;;;;;;;;;;17.85;44.07;100282.59;5039126;28;1910;-54
2024/02/08 09:25:12;;;;;;;;;;;;;;;17.02;45.29;100283.47;5034640;28;1098;-50
2024/02/08 09:27:38;;;;;;;;;;;;;;;17.66;44.58;100280.63;5020142;28;1073;-50
2024/02/08 09:30:13;;;;;;;;;;;;;;;17.59;44.57;100278.22;5019965;28;1075;-53
2024/02/08 09:32:44;;;;;;;;;;;;;;;16.94;45.64;100270.34;5020045;28;1106;-51
2024/02/08 09:35:12;;;;;;;;;;;;;;;16.76;45.54;100269.13;5020707;28;2589;-47
2024/02/08 09:37:39;;;;;;;;;;;;;;;17.08;45.22;100270.50;5032012;28;1159;-49
2024/02/08 09:40:18;;;;;;;;;;;;;;;17.93;43.58;100259.97;5019649;28;1032;-50
2024/02/08 09:42:54;;;;;;;;;;;;;;;17.03;45.50;100257.63;5030587;28;1906;-50
2024/02/08 09:48:05;;;;;;;;;;;;;;;17.20;45.17;100254.44;5028264;28;1190;-52
2024/02/08 09:50:36;;;;;;;;;;;;;;;16.77;45.54;100257.84;5027090;28;1312;-51
2024/02/08 09:53:15;;;;;;;;;;;;;;;18.34;42.84;100255.81;5037674;28;1076;-52
2024/02/08 09:55:57;;;;;;;;;;;;;;;17.21;45.02;100249.78;5030544;28;963;-54
2024/02/08 09:58:33;;;;;;;;;;;;;;;16.85;45.56;100250.91;5026675;28;1000;-53
2024/02/08 10:01:14;;;;;;;;;;;;;;;17.53;44.69;100245.56;5037792;28;1027;-49
2024/02/08 10:03:44;;;;;;;;;;;;;;;17.37;44.87;100245.75;5028971;28;2571;-55
2024/02/08 10:06:13;;;;;;;;;;;;;;;16.91;45.31;100246.22;5032922;28;1137;-55
2024/02/08 10:09:08;;;;;;;;;;;;;;;17.73;44.65;100239.03;5038155;28;1199;-52
2024/02/08 10:11:38;;;;;;;;;;;;;;;17.14;45.38;100230.91;5030162;28;1099;-53
2024/02/08 10:14:24;;;;;;;;;;;;;;;16.84;45.50;100237.47;5034591;28;925;-50
2024/02/08 10:16:52;;;;;;;;;;;;;;;18.42;42.85;100219.34;5038708;28;1031;-52
2024/02/08 10:22:33;;;;;;;;;;;;;;;17.02;45.08;100223.03;5033273;28;1910;-48
2024/02/08 10:27:20;;;;;;;;;;;;;;;17.40;44.86;100206.72;5032520;28;1008;-50
2024/02/08 10:30:05;;;;;;;;;;;;;;;17.02;45.53;100211.25;5021105;28;1094;-53
2024/02/08 10:32:33;;;;;;;;;;;;;;;16.86;45.69;100196.81;5039087;28;1027;-52
2024/02/08 10:35:13;;;;;;;;;;;;;;;17.57;44.63;100192.47;5028646;28;2456;-51
2024/02/08 10:38:09;;;;;;;;;;;;;;;16.98;45.51;100194.50;5028562;28;1102;-51
2024/02/08 10:40:35;;;;;;;;;;;;;;;18.11;43.76;100187.63;5018878;28;1040;-49
2024/02/08 10:43:16;;;;;;;;;;;;;;;17.36;44.96;100185.56;5022129;28;1964;-50
2024/02/08 10:45:49;;;;;;;;;;;;;;;16.91;45.64;100178.38;5028934;28;1055;-52
2024/02/08 10:48:16;;;;;;;;;;;;;;;16.76;45.20;100182.06;5031974;28;1029;-50
2024/02/08 10:50:43;;;;;;;;;;;;;;;16.77;45.32;100180.97;5018313;28;1382;-51
2024/02/08 10:53:16;;;;;;;;;;;;;;;18.05;43.61;100177.00;5035933;28;973;-53
2024/02/08 10:55:52;;;;;;;;;;;;;;;17.06;45.43;100185.63;5034085;28;836;-52
2024/02/08 10:58:21;;;;;;;;;;;;;;;16.74;45.70;100167.00;5038120;28;1136;-49
2024/02/08 11:03:33;;;;;;;;;;;;;;;18.38;42.95;100161.31;5025618;28;1875;-53
2024/02/08 11:06:04;;;;;;;;;;;;;;;17.10;45.34;100159.22;5018272;28;2924;-52
2024/02/08 11:08:50;;;;;;;;;;;;;;;16.82;45.66;100154.56;5031991;28;1158;-54
2024/02/08 11:11:20;;;;;;;;;;;;;;;18.02;43.96;100150.91;5025447;28;1045;-51
2024/02/08 11:13:50;;;;;;;;;;;;;;;17.48;44.64;100143.94;5036984;28;1230;-50
2024/02/08 11:16:21;;;;;;;;;;;;;;;16.96;45.61;100135.47;5025254;28;1060;-51
2024/02/08 11:18:52;;;;;;;;;;;;;;;16.96;45.01;100138.22;5032717;28;1012;-54
2024/02/08 11:21:24;;;;;;;;;;;;;;;16.87;44.76;100133.38;5034224;28;1054;-52
2024/02/08 11:23:50;;;;;;;;;;;;;;;17.25;45.15;100138.16;5018000;28;1901;-51
2024/02/08 11:26:18;;;;;;;;;;;;;;;17.30;45.16;100135.34;5018226;28;1031;-52
2024/02/08 11:28:44;;;;;;;;;;;;;;;16.82;45.79;100138.91;5031141;28;1127;-52
2024/02/08 11:31:18;;;;;;;;;;;;;;;16.62;45.54;100128.13;5026304;28;950;-46
2024/02/08 11:33:44;;;;;;;;;;;;;;;16.52;45.21;100129.03;5035736;28;2428;-52
2024/02/08 11:36:13;;;;;;;;;;;;;;;18.18;43.64;100126.72;5018070;28;1081;-52
2024/02/08 11:38:46;;;;;;;;;;;;;;;17.21;45.46;100126.16;5035529;28;1136;-54
2024/02/08 11:41:12;;;;;;;;;;;;;;;16.88;45.54;100129.53;5037031;28;1050;-51
2024/02/08 11:43:47;;;;;;;;;;;;;;;16.67;45.86;100128.88;5022872;28;1903;-49
2024/02/08 11:46:18;;;;;;;;;;;;;;;18.12;43.62;100114.97;5017828;28;1033;-47
2024/02/08 11:48:44;;;;;;;;;;;;;;;17.08;45.55;100111.16;5022367;28;1368;-51
2024/02/08 11:51:13;;;;;;;;;;;;;;;16.73;45.91;100113.19;5037039;28;1087;-47
2024/02/08 11:53:39;;;;;;;;;;;;;;;17.12;45.58;100112.22;5022057;28;1091;-51
2024/02/08 11:56:11;;;;;;;;;;;;;;;18.05;43.75;100106.28;5024158;28;918;-47
2024/02/08 11:58:40;;;;;;;;;;;;;;;17.05;45.80;100101.59;5026045;28;1144;-48
2024/02/08 12:01:05;;;;;;;;;;;;;;;16.78;45.71;100107.66;5029326;28;1415;-48
2024/02/08 12:03:31;;;;;;;;;;;;;;;16.69;45.59;100109.38;5033950;28;1911;-48
2024/02/08 12:05:58;;;;;;;;;;;;;;;17.72;44.32;100111.69;5027169;28;2800;-45
2024/02/08 12:08:23;;;;;;;;;;;;;;;17.26;45.31;100099.44;5023257;28;1005;-44
2024/02/08 12:10:52;;;;;;;;;;;;;;;16.83;45.89;100098.53;5037171;28;1102;-46
2024/02/08 12:13:24;;;;;;;;;;;;;;;16.77;45.37;100095.84;5035364;28;1160;-46
2024/02/08 12:15:55;;;;;;;;;;;;;;;17.72;44.54;100103.44;5025480;28;1031;-46
2024/02/08 12:18:21;;;;;;;;;;;;;;;17.37;45.30;100102.84;5017211;28;1071;-45
2024/02/08 12:20:55;;;;;;;;;;;;;;;16.97;45.56;100091.28;5024162;28;933;-48
2024/02/08 12:23:32;;;;;;;;;;;;;;;16.72;45.61;100109.63;5017299;28;1906;-47
2024/02/08 12:26:01;;;;;;;;;;;;;;;16.53;45.46;100098.56;5016823;28;1177;-50
2024/02/08 12:28:30;;;;;;;;;;;;;;;18.16;43.67;100098.69;5025565;28;1249;-47
2024/02/08 12:30:59;;;;;;;;;;;;;;;17.38;45.05;100092.69;5035091;28;1059;-49
2024/02/08 12:33:27;;;;;;;;;;;;;;;16.97;45.68;100093.19;5021787;28;1300;-46
2024/02/08 12:35:53;;;;;;;;;;;;;;;16.61;45.99;100091.63;5028622;28;2678;-47
2024/02/08 12:38:21;;;;;;;;;;;;;;;16.84;45.86;100080.94;5031049;28;1019;-47
2024/02/08 12:40:47;;;;;;;;;;;;;;;18.10;43.42;100091.63;5028844;28;1059;-49
2024/02/08 12:43:19;;;;;;;;;;;;;;;17.22;45.42;100081.88;5029387;28;1913;-47
2024/02/08 12:45:54;;;;;;;;;;;;;;;16.82;45.76;100083.19;5028859;28;1432;-44
2024/02/08 12:48:20;;;;;;;;;;;;;;;16.61;45.44;100088.88;5015473;28;1077;-47
2024/02/08 12:50:52;;;;;;;;;;;;;;;16.50;45.57;100088.16;5016486;28;1036;-45
2024/02/08 12:53:19;;;;;;;;;;;;;;;16.48;45.31;100092.28;5016381;28;1040;-44
2024/02/08 12:55:47;;;;;;;;;;;;;;;17.60;44.61;100075.59;5024376;28;1063;-46
2024/02/08 12:58:15;;;;;;;;;;;;;;;16.80;45.99;100083.44;5022763;28;1080;-48
2024/02/08 13:00:44;;;;;;;;;;;;;;;16.61;45.79;100086.13;5023638;28;1120;-47
2024/02/08 13:03:10;;;;;;;;;;;;;;;17.30;45.13;100083.16;5035247;28;1913;-47
2024/02/08 13:05:36;;;;;;;;;;;;;;;17.09;45.61;100072.41;5031519;28;2841;-47
2024/02/08 13:08:01;;;;;;;;;;;;;;;16.65;46.31;100067.97;5025819;28;1043;-45
2024/02/08 13:10:31;;;;;;;;;;;;;;;16.76;46.37;100068.69;5022870;28;1162;-47
2024/02/08 13:13:10;;;;;;;;;;;;;;;17.52;44.80;100065.28;5028902;28;1127;-48
2024/02/08 13:15:35;;;;;;;;;;;;;;;16.81;46.05;100073.31;5031596;28;1095;-44
2024/02/08 13:18:02;;;;;;;;;;;;;;;16.57;46.03;100057.63;5026871;28;1043;-45
2024/02/08 13:20:27;;;;;;;;;;;;;;;16.45;45.93;100065.44;5020248;28;1024;-48
2024/02/08 13:22:54;;;;;;;;;;;;;;;16.35;45.92;100056.19;5019319;28;1993;-47
2024/02/08 13:25:21;;;;;;;;;;;;;;;16.61;45.69;100064.19;5030749;28;1174;-44
2024/02/08 13:27:49;;;;;;;;;;;;;;;17.67;44.54;100062.31;5035477;28;1454;-45
2024/02/08 13:30:15;;;;;;;;;;;;;;;16.86;45.92;100059.53;5033197;28;1023;-46
2024/02/08 13:32:44;;;;;;;;;;;;;;;16.75;45.46;100059.63;5027785;28;912;-49
2024/02/08 13:35:18;;;;;;;;;;;;;;;16.97;45.71;100055.56;5034494;28;2576;-49
2024/02/08 13:37:47;;;;;;;;;;;;;;;17.45;44.95;100055.44;5016259;28;1092;-46
2024/02/08 13:40:13;;;;;;;;;;;;;;;16.85;45.84;100057.88;5031007;28;1055;-47
2024/02/08 13:42:38;;;;;;;;;;;;;;;16.55;45.80;100048.84;5028962;28;1975;-46
2024/02/08 13:45:05;;;;;;;;;;;;;;;17.88;44.03;100056.47;5025830;28;1072;-48
2024/02/08 13:47:31;;;;;;;;;;;;;;;17.16;45.15;100058.31;5025157;28;1210;-47
2024/02/08 13:49:57;;;;;;;;;;;;;;;16.85;45.67;100052.38;5031488;28;1312;-49
2024/02/08 13:52:25;;;;;;;;;;;;;;;16.68;45.78;100061.09;5032885;28;1261;-48
2024/02/08 13:54:53;;;;;;;;;;;;;;;16.57;45.29;100046.66;5025431;28;1119;-49
2024/02/08 13:57:19;;;;;;;;;;;;;;;18.00;43.78;100059.59;5032973;28;886;-46
2024/02/08 13:59:48;;;;;;;;;;;;;;;17.04;45.83;100057.94;5025695;28;1123;-45
2024/02/08 14:02:17;;;;;;;;;;;;;;;16.89;46.06;100057.03;5027224;28;1906;-45
2024/02/08 14:04:49;;;;;;;;;;;;;;;17.54;44.60;100054.78;5034240;28;2405;-49
2024/02/08 14:07:18;;;;;;;;;;;;;;;17.01;45.58;100048.38;5025477;28;1191;-49
2024/02/08 14:09:45;;;;;;;;;;;;;;;16.62;45.98;100056.75;5038473;28;1253;-45
2024/02/08 14:12:11;;;;;;;;;;;;;;;16.54;45.65;100048.06;5027712;28;1155;-50
2024/02/08 14:14:44;;;;;;;;;;;;;;;17.36;44.83;100053.66;5036087;28;1155;-46
2024/02/08 14:17:20;;;;;;;;;;;;;;;17.36;44.81;100057.25;5038817;28;1489;-49
2024/02/08 14:19:46;;;;;;;;;;;;;;;16.78;45.65;100060.97;5027654;28;1146;-48
2024/02/08 14:22:11;;;;;;;;;;;;;;;16.64;45.50;100060.84;5033692;28;1909;-49
2024/02/08 14:24:40;;;;;;;;;;;;;;;16.52;45.73;100060.44;5025907;28;1126;-45
2024/02/08 14:27:06;;;;;;;;;;;;;;;17.68;44.04;100063.09;5037240;28;1126;-49
2024/02/08 14:29:35;;;;;;;;;;;;;;;16.87;45.77;100066.63;5038453;28;1383;-50
2024/02/08 14:32:03;;;;;;;;;;;;;;;16.60;46.13;100068.03;5036537;28;961;-48
2024/02/08 14:34:30;;;;;;;;;;;;;;;16.47;45.71;100068.72;5030565;28;2604;-48
2024/02/08 14:36:57;;;;;;;;;;;;;;;17.59;44.70;100061.03;5018955;28;1399;-49
2024/02/08 14:39:32;;;;;;;;;;;;;;;17.13;45.59;100058.94;5031716;28;1355;-46
2024/02/08 14:42:01;;;;;;;;;;;;;;;16.72;45.71;100060.22;5027178;28;1344;-50
2024/02/08 14:44:41;;;;;;;;;;;;;;;17.74;44.39;100050.91;5033527;28;1974;-50
2024/02/08 14:47:07;;;;;;;;;;;;;;;17.19;45.20;100062.41;5025354;28;1098;-47
2024/02/08 14:49:54;;;;;;;;;;;;;;;16.76;45.77;100061.25;5028346;28;1360;-49
2024/02/08 14:52:24;;;;;;;;;;;;;;;16.77;46.10;100062.91;5037581;28;1603;-46
2024/02/08 14:54:54;;;;;;;;;;;;;;;17.76;44.09;100066.00;5027703;28;1379;-49
2024/02/08 14:57:24;;;;;;;;;;;;;;;16.93;45.77;100060.81;5030426;28;1479;-50
2024/02/08 14:59:50;;;;;;;;;;;;;;;16.65;45.67;100067.97;5028759;28;1454;-45
2024/02/08 15:02:18;;;;;;;;;;;;;;;16.47;45.46;100063.25;5027238;28;1909;-49
2024/02/08 15:04:45;;;;;;;;;;;;;;;17.99;43.69;100063.44;5026576;28;2467;-47
2024/02/08 15:09:58;;;;;;;;;;;;;;;16.72;45.71;100076.69;5034905;28;854;-48
2024/02/08 15:14:55;;;;;;;;;;;;;;;17.78;44.15;100065.69;5024977;28;1044;-48